KSNL/SNL METAR and TAF weather

Enter ICAO airport designator
Station Type Date Time Source
KSNL METAR 2018/12/15 20:15 UTC NOAA

KSNL 152015Z AUTO 00000KT 10SM CLR 12/M09 A3014 RMK AO2 T01231091


Station Type Date Time Source
KSNL Decoded METAR 2018/12/15 20:15 UTC NOAA

Shawnee, Shawnee Municipal Airport, OK, United States (KSNL) 35-21-26N 096-56-34W
Dec 15, 2018 - 03:15 PM EST / 2018.12.15 2015 UTC
Wind: Calm:0
Visibility: 10 mile(s):0
Sky conditions: clear
Temperature: 54.1 F (12.3 C)
Dew Point: 15.6 F (-9.1 C)
Relative Humidity: 21%
Pressure (altimeter): 30.14 in. Hg (1020 hPa)
ob: KSNL 152015Z AUTO 00000KT 10SM CLR 12/M09 A3014 RMK AO2 T01231091
cycle: 20

Station Type Date Time Source
KSNL TAF UTC NOAA

Error!


Example: see airport list